Carter, MT (59420)

11:09 PM MDT on October 25, 2014 (GMT -0600)
North Fort Benton | Change Station
CLOSE
Current Station
Personal Weather Station
Location: Fort Benton, MT
Elevation: 2641 ft
Nearby Weather Stations

Elev 2641 ft 47.83 °N, 110.66 °W | Updated 1 second ago

Partly Cloudy
Partly Cloudy
42.3 °F
Feels Like 42 °F
N
1.6
Wind Variable Wind from NW
Gusts 1.6 mph

Today
High -- | Low -- °F
--% Chance of Precip.
Yesterday
High -- | Low -- °F
Precip. -- in
7:57 AM 6:17 PM
Waxing Crescent, 6% visible
Pressure 29.65 in
Visibility 10.0 miles
Clouds Few 13000 ft
Windchill 42 °F
Dew Point 41 °F
Humidity 94%
Rainfall 0.00 in
Snow Depth Not available.
UV 0 out of 12
Pollen 2.70 out of 12
Air Quality Not available.
Flu Activity Not available.
METAR KGFA 260456Z AUTO 24011KT 10SM FEW130 11/05 A2961 RMK AO2 SLP039 T01050050

More Conditions Fewer Conditions

Pressure 29.65 in
Visibility 10.0 miles
Clouds Few 13000 ft
Windchill 42 °F
Dew Point 41 °F
Humidity 94%
Rainfall 0.00 in
Snow Depth Not available.
UV 0 out of 12
Pollen 2.70 out of 12
Air Quality Not available.
Flu Activity Not available.
METAR KGFA 260456Z AUTO 24011KT 10SM FEW130 11/05 A2961 RMK AO2 SLP039 T01050050

More Conditions Fewer Conditions

10-Day Weather Forecast

Almanac

Astronomy

Oct. 25, 2014 Rise Set
Actual Time 7:57 AM MDT 6:17 PM MDT
Civil Twilight 7:26 AM MDT 6:49 PM MDT
Nautical Twilight 6:49 AM MDT 7:25 PM MDT
Astronomical Twilight 6:14 AM MDT 8:00 PM MDT
Moon 9:46 AM MDT (10/25) 7:36 PM MDT (10/25)
Length of Visible Light 11h 23m
Length of Day
10h 19m
Tomorrow will be 3m 13s shorter.
Waxing Crescent, 6% of the Moon is Illuminated
Oct 26
Waxing Crescent
Oct 30
First Quarter
Nov 6
Full
Nov 14
Last Quarter
Nov 22
New

Yesterday's Extremes

State Highs State Lows

Community

WunderPhotos

Upload Photos

1,765,111 photos uploaded!

Nearby

Snow Depth

Station Depth Elevation
Stringer Creek 0 in 6550 ft
Onion Park 0 in 7410 ft
Rocky Boy 0 in 4700 ft
Deadman Creek 0 in 6450 ft
Spur Park 0 in 8100 ft

Earthquake Activity

City Distance Mag. Time & Date
No recent earthquake activity has been reported nearby.
Minimum magnitude displayed is 2.5.

Coastal Water Temperatures

Place Temperature
No Stations Reporting

Nearby Weather Stations